Time;durP1;ratioP1;P1;durP2;ratioP2;P2;SDS_P1;SDS_P2;PMS_P1;PMS_P2;Temp;Humidity;BMP_temperature;BMP_pressure;BME280_temperature;BME280_humidity;BME280_pressure;Samples;Min_cycle;Max_cycle;Signal;HPM_P1;HPM_P2
2022/09/23 00:01:03;;;;;;;8.85;4.13;;;16.00;99.90;;;;;;5051749;28;20037;-60
2022/09/23 00:03:30;;;;;;;9.13;4.43;;;16.10;99.90;;;;;;5051665;28;20048;-57
2022/09/23 00:06:01;;;;;;;6.88;3.88;;;16.10;99.90;;;;;;5034005;28;20049;-59
2022/09/23 00:08:28;;;;;;;6.85;3.40;;;16.10;99.90;;;;;;5050304;28;20045;-60
2022/09/23 00:10:55;;;;;;;11.40;4.55;;;16.10;99.90;;;;;;5051140;28;20041;-59
2022/09/23 00:13:24;;;;;;;8.73;3.60;;;16.10;99.90;;;;;;5051478;28;20053;-58
2022/09/23 00:15:51;;;;;;;7.57;3.60;;;16.10;99.90;;;;;;5051029;28;20127;-59
2022/09/23 00:18:19;;;;;;;11.82;4.07;;;16.10;99.90;;;;;;5051400;28;20051;-59
2022/09/23 00:20:46;;;;;;;7.55;3.70;;;16.10;99.90;;;;;;5050954;28;20087;-59
2022/09/23 00:23:13;;;;;;;4.32;3.28;;;16.10;99.90;;;;;;5050176;28;20579;-59
2022/09/23 00:25:40;;;;;;;5.85;3.65;;;16.10;99.90;;;;;;5051592;28;20497;-58
2022/09/23 00:28:07;;;;;;;7.22;3.80;;;16.10;99.90;;;;;;5051184;28;20045;-58
2022/09/23 00:31:15;;;;;;;11.23;4.13;;;16.10;99.90;;;;;;5050393;28;20049;-58
2022/09/23 00:33:42;;;;;;;8.52;4.03;;;16.10;99.90;;;;;;5048779;28;20548;-59
2022/09/23 00:36:10;;;;;;;9.48;4.22;;;16.10;99.90;;;;;;5051089;28;20057;-59
2022/09/23 00:38:37;;;;;;;7.47;3.53;;;16.10;99.90;;;;;;5050777;28;20516;-58
2022/09/23 00:41:05;;;;;;;5.95;3.70;;;16.00;99.90;;;;;;5051334;28;20053;-59
2022/09/23 00:43:45;;;;;;;7.82;3.83;;;16.10;99.90;;;;;;5050717;28;20053;-59
2022/09/23 00:46:26;;;;;;;6.70;4.00;;;16.10;99.90;;;;;;5054337;28;20053;-58
2022/09/23 00:49:20;;;;;;;6.35;4.10;;;16.10;99.90;;;;;;5053380;28;20037;-59
2022/09/23 00:51:49;;;;;;;7.57;3.95;;;16.10;99.90;;;;;;5053609;28;20048;-57
2022/09/23 00:54:16;;;;;;;8.07;4.32;;;16.10;99.90;;;;;;5037153;28;20047;-58
2022/09/23 00:56:43;;;;;;;6.90;3.63;;;16.00;99.90;;;;;;5053329;28;20140;-58
2022/09/23 00:59:10;;;;;;;9.68;3.90;;;16.00;99.90;;;;;;5053822;28;20041;-58
2022/09/23 01:01:37;;;;;;;7.85;4.00;;;15.90;99.90;;;;;;5053916;28;20472;-57
2022/09/23 01:04:05;;;;;;;9.57;4.80;;;15.90;99.90;;;;;;5053468;28;20052;-57
2022/09/23 01:06:31;;;;;;;7.15;5.22;;;15.90;99.90;;;;;;5053554;28;20059;-57
2022/09/23 01:08:58;;;;;;;8.18;4.28;;;15.90;99.90;;;;;;5053172;28;20393;-57
2022/09/23 01:11:49;;;;;;;7.57;4.95;;;15.90;99.90;;;;;;5054765;28;20057;-57
2022/09/23 01:14:41;;;;;;;8.32;4.43;;;15.90;99.90;;;;;;5054491;28;20048;-58
2022/09/23 01:17:46;;;;;;;7.13;4.25;;;15.90;99.90;;;;;;5054757;28;20049;-57
2022/09/23 01:20:38;;;;;;;8.38;4.47;;;15.90;99.90;;;;;;5053396;28;20063;-58
2022/09/23 01:23:25;;;;;;;7.97;4.63;;;15.80;99.90;;;;;;5054034;28;20045;-58
2022/09/23 01:26:27;;;;;;;12.02;5.75;;;15.70;99.90;;;;;;5047601;28;20045;-58
2022/09/23 01:29:28;;;;;;;10.07;4.72;;;15.70;99.90;;;;;;5052448;28;20103;-58
2022/09/23 01:32:13;;;;;;;8.68;4.50;;;15.60;99.90;;;;;;5054275;28;20047;-58
2022/09/23 01:34:50;;;;;;;7.82;5.10;;;15.60;99.90;;;;;;5032453;28;20049;-58
2022/09/23 01:37:29;;;;;;;7.35;4.65;;;15.60;99.90;;;;;;5036690;28;20500;-58
2022/09/23 01:40:04;;;;;;;10.50;5.63;;;15.60;99.90;;;;;;5052666;28;20489;-57
2022/09/23 01:42:38;;;;;;;7.82;5.28;;;15.60;99.90;;;;;;5033754;28;20497;-57
2022/09/23 01:45:09;;;;;;;12.75;5.13;;;15.60;99.90;;;;;;5047872;28;20068;-58
2022/09/23 01:47:43;;;;;;;9.30;5.15;;;15.60;99.90;;;;;;5052896;28;20045;-58
2022/09/23 01:53:03;;;;;;;7.57;4.70;;;15.60;99.90;;;;;;5032415;28;20063;-58
2022/09/23 01:55:32;;;;;;;10.38;4.60;;;15.60;99.90;;;;;;5048051;28;20083;-58
2022/09/23 01:58:14;;;;;;;8.40;5.18;;;15.70;99.90;;;;;;5052521;28;20049;-58
2022/09/23 02:00:48;;;;;;;7.45;5.53;;;15.70;99.90;;;;;;5052297;28;20049;-58
2022/09/23 02:03:20;;;;;;;;;;;15.70;99.90;;;;;;5016650;28;20505;-56
2022/09/23 02:05:51;;;;;;;6.80;5.05;;;15.70;99.90;;;;;;5045112;28;19921;-59
2022/09/23 02:08:20;;;;;;;15.25;4.82;;;15.70;99.90;;;;;;5035036;28;20067;-58
2022/09/23 02:11:07;;;;;;;13.90;5.78;;;15.70;99.90;;;;;;5034657;28;20044;-58
2022/09/23 02:14:13;;;;;;;8.25;5.07;;;15.70;99.90;;;;;;5032365;28;20057;-58
2022/09/23 02:16:47;;;;;;;9.35;4.50;;;15.70;99.90;;;;;;5050358;28;20052;-58
2022/09/23 02:19:28;;;;;;;7.05;4.90;;;15.60;99.90;;;;;;5033232;28;20061;-58
2022/09/23 02:22:08;;;;;;;10.60;5.63;;;15.70;99.90;;;;;;5052119;28;20047;-57
2022/09/23 02:24:36;;;;;;;11.50;5.15;;;15.70;99.90;;;;;;5051986;28;20052;-58
2022/09/23 02:27:40;;;;;;;7.25;5.50;;;15.60;99.90;;;;;;5051872;28;20152;-58
2022/09/23 02:30:09;;;;;;;9.85;5.32;;;15.70;99.90;;;;;;5053020;28;20049;-58
2022/09/23 02:32:54;;;;;;;5.40;4.32;;;15.70;99.90;;;;;;5051388;28;20456;-58
2022/09/23 02:35:31;;;;;;;6.63;4.47;;;15.70;99.90;;;;;;5052873;28;20400;-57
2022/09/23 02:38:04;;;;;;;6.82;3.88;;;15.60;99.90;;;;;;5051755;28;20068;-58
2022/09/23 02:40:37;;;;;;;8.45;3.78;;;15.70;99.90;;;;;;5052807;28;20045;-58
2022/09/23 02:43:07;;;;;;;7.72;4.20;;;15.70;99.90;;;;;;5051504;28;20095;-58
2022/09/23 02:45:37;;;;;;;6.45;4.22;;;15.70;99.90;;;;;;5052967;28;20053;-57
2022/09/23 02:48:35;;;;;;;7.50;4.05;;;15.70;99.90;;;;;;5051938;28;20107;-56
2022/09/23 02:51:02;;;;;;;11.68;4.30;;;15.80;99.90;;;;;;5034019;28;20136;-58
2022/09/23 02:53:32;;;;;;;11.43;5.32;;;15.70;99.90;;;;;;5051965;28;20045;-58
2022/09/23 02:56:00;;;;;;;9.02;4.45;;;15.70;99.90;;;;;;5051376;28;20127;-58
2022/09/23 02:58:27;;;;;;;10.43;4.47;;;15.70;99.90;;;;;;5052783;28;20047;-58
2022/09/23 03:01:06;;;;;;;10.05;4.70;;;15.70;99.90;;;;;;5051170;28;20136;-58
2022/09/23 03:03:52;;;;;;;7.18;3.88;;;15.70;99.90;;;;;;5048086;28;20052;-58
2022/09/23 03:06:36;;;;;;;8.85;4.68;;;15.70;99.90;;;;;;5051515;28;20057;-58
2022/09/23 03:09:09;;;;;;;8.25;4.30;;;15.70;99.90;;;;;;5050149;28;20059;-55
2022/09/23 03:11:37;;;;;;;5.88;4.03;;;15.70;99.90;;;;;;5035008;28;20070;-58
2022/09/23 03:14:16;;;;;;;9.70;5.40;;;15.70;99.90;;;;;;5034755;28;20120;-58
2022/09/23 03:17:05;;;;;;;9.55;4.97;;;15.70;99.90;;;;;;5035514;28;20521;-58
2022/09/23 03:19:41;;;;;;;10.13;4.93;;;15.70;99.90;;;;;;5040912;28;20061;-58
2022/09/23 03:22:24;;;;;;;7.97;4.75;;;15.70;99.90;;;;;;5050889;28;20048;-58
2022/09/23 03:24:50;;;;;;;6.38;4.32;;;15.70;99.90;;;;;;5041533;28;20045;-58
2022/09/23 03:27:22;;;;;;;7.85;4.35;;;15.70;99.90;;;;;;5051077;28;20040;-58
2022/09/23 03:29:49;;;;;;;11.90;5.20;;;15.70;99.90;;;;;;5034911;28;20041;-58
2022/09/23 03:32:18;;;;;;;6.47;4.03;;;15.70;99.90;;;;;;5034401;28;20049;-58
2022/09/23 03:34:47;;;;;;;15.68;4.50;;;15.70;99.90;;;;;;5050650;28;20258;-58
2022/09/23 03:37:32;;;;;;;10.45;4.70;;;15.70;99.90;;;;;;5033954;28;20071;-58
2022/09/23 03:40:23;;;;;;;9.63;4.93;;;15.70;99.90;;;;;;5049758;28;20048;-58
2022/09/23 03:42:50;;;;;;;8.38;4.38;;;15.70;99.90;;;;;;5034193;28;20478;-58
2022/09/23 03:45:19;;;;;;;13.48;5.00;;;15.70;99.90;;;;;;5051772;28;20059;-57
2022/09/23 03:47:46;;;;;;;9.07;5.07;;;15.70;99.90;;;;;;5018019;28;20456;-58
2022/09/23 03:50:13;;;;;;;8.73;4.32;;;15.80;99.90;;;;;;5052147;28;20053;-58
2022/09/23 03:52:40;;;;;;;8.02;4.45;;;15.80;99.90;;;;;;5051544;28;20045;-58
2022/09/23 03:55:07;;;;;;;6.72;4.65;;;15.80;99.90;;;;;;5051703;28;20052;-58
2022/09/23 03:57:34;;;;;;;7.90;4.38;;;15.70;99.90;;;;;;5050963;28;20056;-57
2022/09/23 04:00:02;;;;;;;7.22;4.32;;;15.70;99.90;;;;;;5051531;28;20053;-58
2022/09/23 04:02:30;;;;;;;9.32;4.53;;;15.80;99.90;;;;;;5047718;28;20453;-58
2022/09/23 04:04:57;;;;;;;5.95;4.40;;;15.80;99.90;;;;;;5041033;28;20523;-58
2022/09/23 04:07:24;;;;;;;10.77;4.40;;;15.80;99.90;;;;;;5053456;28;20055;-58
2022/09/23 04:09:52;;;;;;;8.25;4.50;;;15.70;99.90;;;;;;5051752;28;20127;-57
2022/09/23 04:12:19;;;;;;;9.90;4.15;;;15.70;99.90;;;;;;5052626;28;20124;-58
2022/09/23 04:14:45;;;;;;;11.65;4.10;;;15.70;99.90;;;;;;5051472;28;20124;-58
2022/09/23 04:17:12;;;;;;;7.18;4.53;;;15.70;99.90;;;;;;5052319;28;20048;-58
2022/09/23 04:19:39;;;;;;;9.23;4.57;;;15.70;99.90;;;;;;5051611;28;20059;-58
2022/09/23 04:22:06;;;;;;;8.13;4.07;;;15.70;99.90;;;;;;5051921;28;20044;-58
2022/09/23 04:24:33;;;;;;;8.43;4.78;;;15.70;99.90;;;;;;5049897;28;20423;-58
2022/09/23 04:26:59;;;;;;;6.30;3.90;;;15.70;99.90;;;;;;5051208;28;20059;-57
2022/09/23 04:29:26;;;;;;;7.68;4.70;;;15.70;99.90;;;;;;5050829;28;20048;-58
2022/09/23 04:31:53;;;;;;;8.40;4.20;;;15.70;99.90;;;;;;5050150;28;20075;-58
2022/09/23 04:34:20;;;;;;;5.80;4.20;;;15.70;99.90;;;;;;5049927;28;20471;-57
2022/09/23 04:36:47;;;;;;;6.88;4.53;;;15.60;99.90;;;;;;5050753;28;20045;-58
2022/09/23 04:39:14;;;;;;;11.73;4.90;;;15.70;99.90;;;;;;5051314;28;20063;-58
2022/09/23 04:41:42;;;;;;;6.47;4.22;;;15.70;99.90;;;;;;5049720;28;20043;-58
2022/09/23 04:44:10;;;;;;;7.05;4.25;;;15.70;99.90;;;;;;5050964;28;20056;-59
2022/09/23 04:46:38;;;;;;;11.27;5.05;;;15.70;99.90;;;;;;5050899;28;20060;-58
2022/09/23 04:49:05;;;;;;;9.85;5.00;;;15.60;99.90;;;;;;5049975;28;20045;-58
2022/09/23 04:51:32;;;;;;;8.40;4.65;;;15.60;99.90;;;;;;5050523;28;20500;-58
2022/09/23 04:53:59;;;;;;;6.68;4.78;;;15.70;99.90;;;;;;5050881;28;20045;-59
2022/09/23 04:56:27;;;;;;;8.93;4.28;;;15.70;99.90;;;;;;5049652;28;20407;-58
2022/09/23 04:58:57;;;;;;;7.07;4.30;;;15.70;99.90;;;;;;5049868;28;20055;-59
2022/09/23 05:01:25;;;;;;;5.43;4.25;;;15.70;99.90;;;;;;5049578;28;20503;-59
2022/09/23 05:03:55;;;;;;;9.38;4.10;;;15.70;99.90;;;;;;5049769;28;20049;-58
2022/09/23 05:06:21;;;;;;;6.40;4.43;;;15.60;99.90;;;;;;5049606;28;20051;-59
2022/09/23 05:08:53;;;;;;;7.47;4.57;;;15.60;99.90;;;;;;5050543;28;20051;-58
2022/09/23 05:11:20;;;;;;;7.05;4.30;;;15.60;99.90;;;;;;5049222;28;20391;-59
2022/09/23 05:13:47;;;;;;;7.20;4.40;;;15.60;99.90;;;;;;5049466;28;20124;-58
2022/09/23 05:16:14;;;;;;;10.13;4.32;;;15.60;99.90;;;;;;5050477;28;20438;-58
2022/09/23 05:18:42;;;;;;;10.02;4.47;;;15.70;99.90;;;;;;5033007;28;20526;-57
2022/09/23 05:21:10;;;;;;;9.50;4.10;;;15.70;99.90;;;;;;5048934;28;20465;-58
2022/09/23 05:23:37;;;;;;;7.93;4.00;;;15.70;99.90;;;;;;5048914;28;20579;-58
2022/09/23 05:26:06;;;;;;;9.18;4.10;;;15.60;99.90;;;;;;5050411;28;20041;-60
2022/09/23 05:28:33;;;;;;;6.28;4.32;;;15.60;99.90;;;;;;5049333;28;20412;-59
2022/09/23 05:31:07;;;;;;;9.30;4.25;;;15.60;99.90;;;;;;5050960;28;20055;-59
2022/09/23 05:33:34;;;;;;;10.90;4.55;;;15.60;99.90;;;;;;5050005;28;20132;-59
2022/09/23 05:36:02;;;;;;;9.55;4.15;;;15.60;99.90;;;;;;5053712;28;20367;-59
2022/09/23 05:38:29;;;;;;;7.82;3.95;;;15.70;99.90;;;;;;5052485;28;20153;-60
2022/09/23 05:41:03;;;;;;;11.13;5.32;;;15.70;99.90;;;;;;5054264;28;20434;-59
2022/09/23 05:43:30;;;;;;;10.90;4.47;;;15.70;99.90;;;;;;5053658;28;20055;-59
2022/09/23 05:46:10;;;;;;;8.82;4.60;;;15.70;99.90;;;;;;5054165;28;20049;-59
2022/09/23 05:48:37;;;;;;;7.70;4.82;;;15.70;99.90;;;;;;5053550;28;20049;-58
2022/09/23 05:51:09;;;;;;;7.00;4.35;;;15.60;99.90;;;;;;5053978;28;20080;-58
2022/09/23 05:53:36;;;;;;;8.38;4.65;;;15.60;99.90;;;;;;5052233;28;20547;-59
2022/09/23 05:56:04;;;;;;;9.55;4.60;;;15.70;99.90;;;;;;5036133;28;20124;-58
2022/09/23 05:58:31;;;;;;;11.18;5.35;;;15.70;99.90;;;;;;5052349;28;20119;-58
2022/09/23 06:00:58;;;;;;;9.90;6.38;;;15.70;99.90;;;;;;5051040;28;20128;-58
2022/09/23 06:03:25;;;;;;;14.10;7.07;;;15.70;99.90;;;;;;5048975;28;20056;-58
2022/09/23 06:05:52;;;;;;;10.18;6.25;;;15.80;99.90;;;;;;5050343;28;20056;-59
2022/09/23 06:08:19;;;;;;;10.02;6.72;;;15.80;99.90;;;;;;5048622;28;20071;-57
2022/09/23 06:10:47;;;;;;;12.13;6.97;;;15.80;99.90;;;;;;5032211;28;20064;-59
2022/09/23 06:13:21;;;;;;;8.57;6.70;;;15.80;99.90;;;;;;5049379;28;20213;-58
2022/09/23 06:15:48;;;;;;;11.60;6.35;;;15.80;99.90;;;;;;5050441;28;20057;-58
2022/09/23 06:18:16;;;;;;;11.18;7.13;;;15.80;99.90;;;;;;5049827;28;20165;-57
2022/09/23 06:20:42;;;;;;;9.68;7.72;;;15.80;99.90;;;;;;5048404;28;20398;-58
2022/09/23 06:23:10;;;;;;;11.27;7.57;;;15.80;99.90;;;;;;5048241;28;20087;-58
2022/09/23 06:25:40;;;;;;;11.20;7.97;;;15.70;99.90;;;;;;5049454;28;20419;-58
2022/09/23 06:28:09;;;;;;;8.98;6.50;;;15.70;99.90;;;;;;5049448;28;20049;-59
2022/09/23 06:30:36;;;;;;;10.40;6.80;;;15.60;99.90;;;;;;5049593;28;20621;-58
2022/09/23 06:33:03;;;;;;;8.80;6.70;;;15.60;99.90;;;;;;5048162;28;20060;-58
2022/09/23 06:35:32;;;;;;;13.13;7.85;;;15.60;99.90;;;;;;5048422;28;20370;-57
2022/09/23 06:38:01;;;;;;;15.50;7.40;;;15.50;99.90;;;;;;5049256;28;20164;-59
2022/09/23 06:40:28;;;;;;;12.15;7.70;;;15.50;99.90;;;;;;5049145;28;20067;-59
2022/09/23 06:43:01;;;;;;;11.10;7.82;;;15.50;99.90;;;;;;5049417;28;20504;-59
2022/09/23 06:45:29;;;;;;;13.25;7.72;;;15.50;99.90;;;;;;5048147;28;20487;-59
2022/09/23 06:47:56;;;;;;;9.98;6.70;;;15.50;99.90;;;;;;5048737;28;20536;-58
2022/09/23 06:50:24;;;;;;;12.80;7.90;;;15.50;99.90;;;;;;5048390;28;20057;-59
2022/09/23 06:52:54;;;;;;;11.88;8.23;;;15.50;99.90;;;;;;5027792;28;20563;-60
2022/09/23 06:55:24;;;;;;;19.70;8.38;;;15.50;99.90;;;;;;5042774;28;20053;-59
2022/09/23 06:57:50;;;;;;;13.68;8.07;;;15.50;99.90;;;;;;5047915;28;20057;-57
2022/09/23 07:00:18;;;;;;;17.20;8.93;;;15.50;99.90;;;;;;5048434;28;20135;-60
2022/09/23 07:02:45;;;;;;;12.27;8.52;;;15.50;99.90;;;;;;4694135;28;10000111;-60
2022/09/23 07:05:12;;;;;;;10.27;8.07;;;15.50;99.90;;;;;;5045844;28;20053;-58
2022/09/23 07:07:40;;;;;;;12.15;9.05;;;15.50;99.90;;;;;;5050217;28;20504;-59
2022/09/23 07:10:07;;;;;;;14.48;10.02;;;15.40;99.90;;;;;;5053695;28;20052;-58
2022/09/23 07:12:34;;;;;;;17.50;10.00;;;15.40;99.90;;;;;;5055336;28;20049;-60
2022/09/23 07:15:00;;;;;;;14.25;10.20;;;15.40;99.90;;;;;;5056053;28;20472;-60
2022/09/23 07:17:27;;;;;;;12.75;9.02;;;15.50;99.90;;;;;;5055553;28;20553;-58
2022/09/23 07:19:54;;;;;;;17.00;10.82;;;15.50;99.90;;;;;;5053972;28;20492;-59
2022/09/23 07:22:23;;;;;;;16.10;10.95;;;15.50;99.90;;;;;;5054693;28;20056;-59
2022/09/23 07:24:51;;;;;;;14.25;10.15;;;15.50;99.90;;;;;;5031811;28;20562;-59
2022/09/23 07:27:18;;;;;;;15.90;10.05;;;15.60;99.90;;;;;;5053804;28;20495;-59
2022/09/23 07:29:49;;;;;;;14.02;9.98;;;15.60;99.90;;;;;;5053891;28;20056;-60
2022/09/23 07:32:16;;;;;;;12.35;9.07;;;15.60;99.90;;;;;;5052310;28;20715;-59
2022/09/23 07:34:43;;;;;;;11.05;8.55;;;15.60;99.90;;;;;;5051974;28;20052;-59
2022/09/23 07:37:10;;;;;;;12.10;8.82;;;15.70;99.90;;;;;;5050532;28;20443;-59
2022/09/23 07:39:38;;;;;;;11.38;8.88;;;15.70;99.90;;;;;;5050703;28;20061;-59
2022/09/23 07:42:05;;;;;;;14.00;9.15;;;15.70;99.90;;;;;;5050068;28;20076;-59
2022/09/23 07:44:32;;;;;;;11.57;8.30;;;15.70;99.90;;;;;;5048762;28;20071;-58
2022/09/23 07:46:59;;;;;;;13.75;9.13;;;15.70;99.90;;;;;;5046780;28;20064;-61
2022/09/23 07:49:26;;;;;;;10.68;8.00;;;15.70;99.90;;;;;;5014019;28;20041;-58
2022/09/23 07:51:53;;;;;;;18.58;7.45;;;15.70;99.90;;;;;;5046156;28;20157;-59
2022/09/23 07:54:20;;;;;;;8.80;6.70;;;15.70;99.90;;;;;;5046497;28;20048;-61
2022/09/23 07:56:47;;;;;;;10.05;7.13;;;15.70;99.90;;;;;;5048826;28;20059;-61
2022/09/23 07:59:17;;;;;;;11.18;7.90;;;15.60;99.90;;;;;;5049856;28;20044;-59
2022/09/23 08:01:46;;;;;;;10.52;7.53;;;15.60;99.90;;;;;;5047958;28;20048;-59
2022/09/23 08:04:25;;;;;;;11.23;7.35;;;15.70;99.90;;;;;;5029490;28;20056;-61
2022/09/23 08:06:56;;;;;;;9.57;6.47;;;15.70;99.90;;;;;;5045130;28;20053;-59
2022/09/23 08:09:33;;;;;;;12.60;7.30;;;15.70;99.90;;;;;;5045786;28;20084;-60
2022/09/23 08:12:00;;;;;;;11.00;7.57;;;15.70;99.90;;;;;;5045320;28;20130;-58
2022/09/23 08:14:27;;;;;;;12.13;7.07;;;15.70;99.90;;;;;;5044535;28;20139;-57
2022/09/23 08:16:54;;;;;;;10.77;7.30;;;15.70;99.90;;;;;;5048353;28;20053;-59
2022/09/23 08:19:20;;;;;;;10.75;7.10;;;15.70;99.90;;;;;;5046471;28;20124;-59
2022/09/23 08:21:48;;;;;;;8.82;6.85;;;15.80;99.90;;;;;;5047475;28;20164;-58
2022/09/23 08:24:19;;;;;;;9.38;7.03;;;15.80;99.90;;;;;;5047867;28;20049;-59
2022/09/23 08:26:47;;;;;;;11.35;7.95;;;15.80;99.90;;;;;;5037077;28;20052;-58
2022/09/23 08:29:15;;;;;;;10.25;7.20;;;15.80;99.90;;;;;;5045746;28;20124;-58
2022/09/23 08:31:42;;;;;;;12.00;7.55;;;15.80;99.90;;;;;;5045966;28;20101;-58
2022/09/23 08:34:09;;;;;;;12.88;8.23;;;15.80;99.90;;;;;;5045836;28;20049;-58
2022/09/23 08:36:36;;;;;;;12.48;7.35;;;15.80;99.90;;;;;;5041300;28;20052;-58
2022/09/23 08:39:03;;;;;;;13.25;8.23;;;15.90;99.90;;;;;;5045890;28;20481;-58
2022/09/23 08:41:42;;;;;;;11.88;8.10;;;15.90;99.90;;;;;;5033048;28;20415;-58
2022/09/23 08:44:24;;;;;;;10.90;8.55;;;16.00;99.90;;;;;;5050639;28;20397;-59
2022/09/23 08:46:59;;;;;;;11.73;8.27;;;16.00;99.90;;;;;;5050972;28;20053;-57
2022/09/23 08:49:30;;;;;;;9.23;7.90;;;16.10;99.90;;;;;;5049385;28;20132;-60
2022/09/23 08:51:57;;;;;;;10.88;7.88;;;16.10;99.90;;;;;;5048582;28;20067;-57
2022/09/23 08:54:24;;;;;;;17.00;8.80;;;16.10;99.90;;;;;;5048981;28;20432;-59
2022/09/23 08:56:51;;;;;;;9.77;8.55;;;16.10;99.90;;;;;;5032845;28;20083;-61
2022/09/23 08:59:28;;;;;;;7.68;6.38;;;16.10;99.90;;;;;;5048870;28;20052;-58
2022/09/23 09:02:05;;;;;;;13.38;7.72;;;16.20;99.90;;;;;;5047890;28;20053;-59
2022/09/23 09:04:39;;;;;;;10.13;7.60;;;16.20;99.90;;;;;;5031339;28;20045;-59
2022/09/23 09:07:06;;;;;;;;;;;16.20;99.90;;;;;;5050601;28;20475;-58
2022/09/23 09:10:13;;;;;;;9.57;8.57;;;16.20;99.90;;;;;;5052795;28;20287;-59
2022/09/23 09:12:51;;;;;;;8.27;6.90;;;16.20;99.90;;;;;;5032738;28;20057;-59
2022/09/23 09:15:20;;;;;;;10.77;8.20;;;16.40;99.90;;;;;;5050339;28;20049;-59
2022/09/23 09:17:54;;;;;;;8.35;7.45;;;16.50;99.90;;;;;;5054566;28;20132;-59
2022/09/23 09:20:40;;;;;;;9.40;6.70;;;16.40;99.90;;;;;;5054089;28;20063;-59
2022/09/23 09:23:13;;;;;;;15.18;8.27;;;16.30;99.90;;;;;;5033059;28;20103;-58
2022/09/23 09:25:44;;;;;;;9.27;7.85;;;16.30;99.90;;;;;;5051825;28;20506;-58
2022/09/23 09:28:29;;;;;;;10.65;7.72;;;16.30;99.90;;;;;;5053461;28;20140;-59
2022/09/23 09:30:59;;;;;;;9.68;7.57;;;16.40;99.90;;;;;;5037483;28;20516;-59
2022/09/23 09:33:31;;;;;;;10.45;7.65;;;16.40;99.90;;;;;;5036847;28;20091;-56
2022/09/23 09:36:09;;;;;;;13.48;8.30;;;16.30;99.90;;;;;;5052420;28;20148;-59
2022/09/23 09:38:36;;;;;;;10.18;7.65;;;16.40;99.90;;;;;;5052707;28;20071;-59
2022/09/23 09:41:16;;;;;;;12.70;9.98;;;16.40;99.90;;;;;;5053919;28;20128;-57
2022/09/23 09:43:47;;;;;;;17.50;13.48;;;16.40;99.90;;;;;;5034249;28;20084;-59
2022/09/23 09:46:50;;;;;;;17.25;12.90;;;16.30;99.90;;;;;;5049400;28;20138;-59
2022/09/23 09:49:24;;;;;;;17.35;13.43;;;16.30;99.90;;;;;;5032901;28;20112;-59
2022/09/23 09:52:18;;;;;;;21.77;14.95;;;16.20;99.90;;;;;;5051797;28;20124;-58
2022/09/23 09:54:45;;;;;;;23.17;15.07;;;16.20;99.90;;;;;;5052722;28;20416;-56
2022/09/23 09:57:29;;;;;;;21.75;14.90;;;16.30;99.90;;;;;;5052584;28;20079;-59
2022/09/23 10:00:24;;;;;;;24.45;14.45;;;16.30;99.90;;;;;;5052459;28;20128;-59
2022/09/23 10:02:55;;;;;;;22.40;16.27;;;16.40;99.90;;;;;;5053393;28;20083;-58
2022/09/23 10:05:27;;;;;;;21.85;14.88;;;16.40;99.90;;;;;;5053516;28;20057;-59
2022/09/23 10:07:54;;;;;;;18.27;15.07;;;16.40;99.90;;;;;;5036397;28;20079;-59
2022/09/23 10:10:23;;;;;;;25.25;16.38;;;16.40;99.90;;;;;;5053388;28;20131;-60
2022/09/23 10:13:02;;;;;;;21.35;14.15;;;16.40;99.90;;;;;;5036924;28;20053;-59
2022/09/23 10:15:33;;;;;;;18.42;14.88;;;16.50;99.90;;;;;;5035954;28;20553;-58
2022/09/23 10:18:01;;;;;;;21.17;14.93;;;16.50;99.90;;;;;;5048390;28;20045;-58
2022/09/23 10:20:34;;;;;;;25.70;15.60;;;16.60;99.90;;;;;;5053152;28;20068;-59
2022/09/23 10:23:08;;;;;;;19.27;15.65;;;16.60;99.90;;;;;;5051754;28;20451;-59
2022/09/23 10:25:35;;;;;;;18.80;15.65;;;16.60;99.90;;;;;;5051921;28;20128;-58
2022/09/23 10:28:40;;;;;;;16.35;14.40;;;16.60;99.90;;;;;;5053154;28;20098;-59
2022/09/23 10:31:15;;;;;;;19.52;13.48;;;16.70;99.90;;;;;;5053273;28;20055;-59
2022/09/23 10:33:47;;;;;;;22.40;14.60;;;16.70;99.90;;;;;;5051820;28;20052;-58
2022/09/23 10:36:15;;;;;;;20.00;14.48;;;16.70;99.90;;;;;;5035738;28;20095;-58
2022/09/23 10:38:42;;;;;;;15.77;14.05;;;16.70;99.90;;;;;;4700503;28;10000228;-59
2022/09/23 10:47:27;;;;;;;17.50;13.15;;;16.70;99.90;;;;;;5052695;28;20052;-58
2022/09/23 10:50:13;;;;;;;17.73;12.95;;;16.70;99.90;;;;;;5035829;28;20053;-59
2022/09/23 10:53:03;;;;;;;19.15;12.65;;;16.70;99.90;;;;;;5036238;28;20121;-58
2022/09/23 10:55:51;;;;;;;17.10;11.75;;;16.70;99.90;;;;;;5035956;28;20052;-58
2022/09/23 10:58:33;;;;;;;18.65;12.45;;;16.70;99.90;;;;;;5035805;28;20053;-58
2022/09/23 11:01:28;;;;;;;19.05;13.02;;;16.70;99.90;;;;;;5052704;28;20326;-57
2022/09/23 11:04:12;;;;;;;13.38;11.77;;;16.80;99.90;;;;;;5037092;28;20053;-58
2022/09/23 11:06:48;;;;;;;14.55;11.93;;;16.80;99.90;;;;;;5052394;28;20087;-58
2022/09/23 11:09:26;;;;;;;16.35;12.13;;;17.00;99.90;;;;;;5050857;28;20458;-59
2022/09/23 11:12:07;;;;;;;14.77;12.48;;;17.10;99.90;;;;;;5051370;28;20049;-58
2022/09/23 11:14:55;;;;;;;16.60;12.48;;;17.20;99.90;;;;;;5050638;28;20037;-58
2022/09/23 11:17:47;;;;;;;15.95;12.18;;;17.40;99.90;;;;;;5052079;28;20049;-59
2022/09/23 11:20:43;;;;;;;16.90;11.85;;;17.50;99.90;;;;;;5050291;28;20522;-58
2022/09/23 11:23:28;;;;;;;17.60;12.15;;;17.60;99.90;;;;;;5050923;28;20041;-56
2022/09/23 11:25:58;;;;;;;13.68;11.05;;;17.70;99.90;;;;;;5043095;28;20420;-59
2022/09/23 11:28:49;;;;;;;18.48;11.15;;;17.70;99.90;;;;;;5050078;28;20534;-59
2022/09/23 11:31:31;;;;;;;13.02;9.18;;;17.60;99.90;;;;;;5018980;28;20477;-58
2022/09/23 11:34:01;;;;;;;14.00;8.43;;;17.60;99.90;;;;;;5050563;28;20048;-59
2022/09/23 11:37:04;;;;;;;11.40;8.30;;;17.50;99.90;;;;;;5051545;28;20380;-58
2022/09/23 11:39:37;;;;;;;10.25;7.93;;;17.50;99.90;;;;;;5050091;28;20045;-58
2022/09/23 11:42:08;;;;;;;10.73;8.02;;;17.50;99.90;;;;;;5034218;28;20045;-58
2022/09/23 11:44:41;;;;;;;9.98;7.75;;;17.50;99.90;;;;;;5050215;28;20501;-57
2022/09/23 11:47:13;;;;;;;11.73;7.45;;;17.50;99.90;;;;;;5050382;28;20041;-58
2022/09/23 11:50:01;;;;;;;8.93;7.13;;;17.50;99.90;;;;;;5030404;28;20049;-59
2022/09/23 11:52:34;;;;;;;8.93;6.50;;;17.40;99.90;;;;;;5050149;28;20049;-58
2022/09/23 11:55:22;;;;;;;8.98;7.13;;;17.40;99.90;;;;;;5051503;28;20070;-59
2022/09/23 11:57:56;;;;;;;8.18;6.35;;;17.40;99.90;;;;;;5050398;28;20518;-58
2022/09/23 12:00:25;;;;;;;8.30;6.50;;;17.40;99.90;;;;;;5049992;28;20041;-57
2022/09/23 12:03:08;;;;;;;7.38;6.00;;;17.40;99.90;;;;;;5050230;28;20131;-56
2022/09/23 12:05:40;;;;;;;9.20;6.35;;;17.50;99.90;;;;;;5049953;28;20403;-58
2022/09/23 12:08:16;;;;;;;7.25;4.90;;;17.50;99.90;;;;;;5034089;28;20061;-60
2022/09/23 12:11:11;;;;;;;7.35;3.75;;;17.60;99.90;;;;;;5051323;28;20133;-58
2022/09/23 12:13:56;;;;;;;7.85;4.57;;;17.60;99.90;;;;;;5032707;28;20064;-60
2022/09/23 12:16:32;;;;;;;8.00;4.13;;;17.70;99.90;;;;;;5048772;28;20487;-58
2022/09/23 12:19:26;;;;;;;10.50;4.38;;;17.70;99.90;;;;;;5051320;28;20497;-58
2022/09/23 12:22:32;;;;;;;8.10;4.70;;;17.70;99.90;;;;;;5050814;28;20136;-59
2022/09/23 12:25:05;;;;;;;7.72;5.30;;;17.70;99.90;;;;;;5049787;28;20051;-57
2022/09/23 12:27:35;;;;;;;5.80;4.50;;;17.70;99.90;;;;;;5049755;28;20405;-59
2022/09/23 12:30:11;;;;;;;8.70;4.90;;;17.70;99.90;;;;;;5049842;28;20073;-57
2022/09/23 12:32:38;;;;;;;9.00;5.05;;;17.70;99.90;;;;;;5049355;28;20133;-58
2022/09/23 12:35:06;;;;;;;13.18;5.18;;;17.80;99.90;;;;;;5050862;28;20140;-57
2022/09/23 12:37:37;;;;;;;10.95;5.00;;;17.90;99.90;;;;;;5050783;28;20037;-59
2022/09/23 12:40:17;;;;;;;5.82;4.40;;;18.00;99.90;;;;;;5050790;28;20047;-60
2022/09/23 12:42:45;;;;;;;6.03;4.30;;;18.20;99.90;;;;;;5017683;28;20073;-59
2022/09/23 12:45:16;;;;;;;5.38;4.22;;;18.20;99.90;;;;;;5053768;28;20053;-59
2022/09/23 12:47:43;;;;;;;5.22;4.32;;;18.30;99.90;;;;;;5054890;28;20056;-58
2022/09/23 12:50:47;;;;;;;4.80;4.00;;;18.30;99.90;;;;;;5054917;28;20049;-59
2022/09/23 12:53:32;;;;;;;6.72;4.72;;;18.20;99.90;;;;;;5053455;28;20132;-58
2022/09/23 12:56:46;;;;;;;6.70;4.53;;;18.10;99.90;;;;;;5054942;28;20252;-59
2022/09/23 12:59:28;;;;;;;7.60;5.07;;;18.10;99.90;;;;;;5061741;28;20060;-59
2022/09/23 13:01:55;;;;;;;7.22;3.95;;;18.10;99.90;;;;;;5053292;28;20041;-57
2022/09/23 13:07:42;;;;;;;9.10;3.80;;;18.10;99.90;;;;;;5053298;28;20052;-59
2022/09/23 13:10:52;;;;;;;4.85;3.50;;;18.10;99.90;;;;;;5037029;28;20144;-58
2022/09/23 13:13:27;;;;;;;5.93;4.07;;;18.00;99.90;;;;;;5060117;28;20059;-59
2022/09/23 13:15:55;;;;;;;5.70;4.07;;;18.10;99.90;;;;;;5053296;28;20049;-57
2022/09/23 13:18:22;;;;;;;5.97;4.38;;;18.20;99.90;;;;;;5052840;28;20382;-57
2022/09/23 13:20:50;;;;;;;4.22;3.40;;;18.40;99.90;;;;;;5054121;28;20053;-59
2022/09/23 13:23:30;;;;;;;5.80;3.72;;;18.50;99.90;;;;;;5052959;28;20084;-58
2022/09/23 13:26:01;;;;;;;4.07;3.25;;;18.60;99.90;;;;;;5034398;28;20084;-59